createdAt,value
2019-05-03T08:39:44.782Z,100129.98
2019-05-03T08:42:22.032Z,100126.10
2019-05-03T08:44:56.637Z,100120.53
2019-05-03T08:47:36.215Z,100127.78
2019-05-03T08:50:10.760Z,100127.27
2019-05-03T08:52:51.286Z,100123.88
2019-05-03T08:55:25.512Z,100121.87
2019-05-03T08:57:57.898Z,100124.73
2019-05-03T09:00:31.581Z,100119.00
2019-05-03T09:03:07.672Z,100116.08
2019-05-03T09:05:40.317Z,100115.88
2019-05-03T09:08:12.930Z,100118.56
2019-05-03T09:10:48.993Z,100128.25
2019-05-03T09:13:25.369Z,100124.37
2019-05-03T09:15:57.013Z,100120.46
2019-05-03T09:18:28.777Z,100125.98
2019-05-03T09:21:00.338Z,100123.72
2019-05-03T09:23:35.562Z,100125.33
2019-05-03T09:26:08.887Z,100113.93
2019-05-03T09:28:47.279Z,100117.98
2019-05-03T09:31:24.698Z,100119.55
2019-05-03T09:33:57.317Z,100103.22
2019-05-03T09:36:28.871Z,100109.11
2019-05-03T09:39:00.759Z,100109.07
2019-05-03T09:41:34.732Z,100108.39
2019-05-03T09:44:07.001Z,100100.11
2019-05-03T09:46:38.652Z,100101.10
2019-05-03T09:49:16.595Z,100097.95
2019-05-03T09:51:49.240Z,100101.59
2019-05-03T09:54:22.553Z,100098.72
2019-05-03T09:56:58.629Z,100096.77
2019-05-03T09:59:31.664Z,100102.56
2019-05-03T10:02:04.746Z,100101.97
2019-05-03T10:04:37.594Z,100109.63
2019-05-03T10:07:10.226Z,100104.16
2019-05-03T10:09:51.892Z,100100.39
2019-05-03T10:12:25.815Z,100106.90
2019-05-03T10:14:59.371Z,100104.47
2019-05-03T10:17:35.150Z,100106.00
2019-05-03T10:20:15.345Z,100106.07
2019-05-03T10:22:50.685Z,100111.41
2019-05-03T10:25:45.517Z,100116.16
2019-05-03T10:28:21.127Z,100107.65
2019-05-03T10:30:56.309Z,100099.03
2019-05-03T10:33:48.659Z,100099.03
2019-05-03T10:36:25.206Z,100111.28
2019-05-03T10:38:59.249Z,100106.38
2019-05-03T10:41:37.069Z,100108.03
2019-05-03T10:44:10.467Z,100112.61
2019-05-03T10:46:41.973Z,100105.81
2019-05-03T10:49:15.692Z,100118.87
2019-05-03T10:51:50.737Z,100126.85
2019-05-03T10:54:24.185Z,100122.52
2019-05-03T10:56:57.278Z,100113.17
2019-05-03T10:59:30.261Z,100106.51
2019-05-03T11:02:11.892Z,100111.71
2019-05-03T11:04:46.244Z,100113.84
2019-05-03T11:07:28.502Z,100124.06
2019-05-03T11:10:00.446Z,100123.85
2019-05-03T11:12:34.749Z,100117.63
2019-05-03T11:15:06.691Z,100121.67
2019-05-03T11:17:37.965Z,100126.79
2019-05-03T11:20:10.398Z,100118.54
2019-05-03T11:22:44.918Z,100111.41
2019-05-03T11:25:18.846Z,100105.10
2019-05-03T11:27:52.550Z,100104.34
2019-05-03T11:30:24.685Z,100098.44
2019-05-03T11:33:02.282Z,100093.58
2019-05-03T11:35:44.740Z,100095.98
2019-05-03T11:38:25.552Z,100089.47
2019-05-03T11:40:57.120Z,100096.36
2019-05-03T11:43:28.662Z,100101.86
2019-05-03T11:46:00.779Z,100118.37
2019-05-03T11:48:32.325Z,100110.99
2019-05-03T11:51:04.025Z,100104.61
2019-05-03T11:53:38.269Z,100094.60
2019-05-03T11:56:10.868Z,100093.07
2019-05-03T11:58:45.530Z,100078.97
2019-05-03T12:01:20.053Z,100081.98
2019-05-03T12:03:51.590Z,100083.38
2019-05-03T12:06:24.901Z,100086.18
2019-05-03T12:08:59.181Z,100086.18
2019-05-03T12:11:38.683Z,100079.08
2019-05-03T12:14:16.563Z,100088.58
2019-05-03T12:17:20.120Z,100081.03
2019-05-03T12:19:49.248Z,100077.98
2019-05-03T12:22:22.295Z,100072.02
2019-05-03T12:24:56.424Z,100063.56
2019-05-03T12:27:28.355Z,100063.05
2019-05-03T12:30:02.324Z,100057.70
2019-05-03T12:32:37.520Z,100058.82
2019-05-03T12:35:09.599Z,100056.72
2019-05-03T12:37:41.293Z,100058.13
2019-05-03T12:40:14.957Z,100057.84
2019-05-03T12:42:46.982Z,100059.58
2019-05-03T12:45:24.585Z,100053.33
2019-05-03T12:47:56.195Z,100060.16
2019-05-03T12:50:28.132Z,100061.69
2019-05-03T12:53:02.020Z,100060.25
2019-05-03T12:55:35.550Z,100058.60
2019-05-03T12:58:08.575Z,100055.91
2019-05-03T13:00:55.696Z,100057.52
2019-05-03T13:03:32.865Z,100056.66
2019-05-03T13:06:07.237Z,100057.91
2019-05-03T13:08:42.135Z,100057.91
2019-05-03T13:11:19.728Z,100053.53
2019-05-03T13:13:55.663Z,100054.64
2019-05-03T13:16:27.386Z,100055.88
2019-05-03T13:18:59.625Z,100052.65
2019-05-03T13:21:31.050Z,100049.59
2019-05-03T13:24:02.647Z,100043.53
2019-05-03T13:26:35.084Z,100048.16
2019-05-03T13:29:06.933Z,100021.75
2019-05-03T13:31:38.446Z,100052.16
2019-05-03T13:34:10.802Z,100049.73
2019-05-03T13:36:45.487Z,100044.29
2019-05-03T13:39:26.336Z,100045.53
2019-05-03T13:41:57.198Z,100043.59
2019-05-03T13:44:31.962Z,100040.98
2019-05-03T13:47:04.530Z,100048.47
2019-05-03T13:49:40.586Z,100048.94
2019-05-03T13:52:15.344Z,100048.41
2019-05-03T13:54:47.873Z,100044.69
2019-05-03T13:57:24.533Z,100049.62
2019-05-03T13:59:56.864Z,100057.95
2019-05-03T14:02:29.962Z,100054.23
2019-05-03T14:05:01.756Z,100052.27
2019-05-03T14:07:35.383Z,100050.40
2019-05-03T14:10:08.272Z,100047.45
2019-05-03T14:12:40.032Z,100049.12
2019-05-03T14:15:12.082Z,100056.95
2019-05-03T14:17:43.713Z,100046.30
2019-05-03T14:20:20.397Z,100046.23
2019-05-03T14:22:53.030Z,100053.09
2019-05-03T14:25:24.808Z,100054.67
2019-05-03T14:27:59.643Z,100047.37
2019-05-03T14:30:34.509Z,100047.63
2019-05-03T14:33:06.828Z,100053.19
2019-05-03T14:35:38.452Z,100048.31
2019-05-03T14:38:09.976Z,100052.25
2019-05-03T14:40:52.023Z,100052.39
2019-05-03T14:43:26.046Z,100056.80
2019-05-03T14:46:01.087Z,100056.28
2019-05-03T14:48:36.345Z,100046.45
2019-05-03T14:51:14.721Z,100052.62
2019-05-03T14:53:47.022Z,100052.90
2019-05-03T14:56:25.411Z,100057.49
2019-05-03T14:59:00.341Z,100052.91
2019-05-03T15:01:43.615Z,100055.14
2019-05-03T15:04:18.199Z,100054.16
2019-05-03T15:06:50.091Z,100057.87
2019-05-03T15:09:22.424Z,100049.58
2019-05-03T15:11:55.632Z,100048.78
2019-05-03T15:14:27.736Z,100048.25
2019-05-03T15:17:01.117Z,100056.02
2019-05-03T15:19:34.738Z,100061.02
2019-05-03T15:22:07.906Z,100057.97
2019-05-03T15:24:40.890Z,100050.11
2019-05-03T15:27:17.417Z,100049.50
2019-05-03T15:29:50.414Z,100050.26
2019-05-03T15:32:28.043Z,100055.88
2019-05-03T15:35:01.321Z,100060.46
2019-05-03T15:37:35.629Z,100060.20
2019-05-03T15:40:08.424Z,100059.41
2019-05-03T15:42:41.579Z,100056.38
2019-05-03T15:45:14.848Z,100056.59
2019-05-03T15:48:04.601Z,100056.59
2019-05-03T15:50:37.108Z,100067.14
2019-05-03T15:53:08.729Z,100064.50
2019-05-03T15:55:55.003Z,100064.09
2019-05-03T15:58:29.704Z,100059.47
2019-05-03T16:01:01.254Z,100058.23
2019-05-03T16:03:35.601Z,100066.29
2019-05-03T16:06:07.019Z,100070.83
2019-05-03T16:08:38.485Z,100072.62
2019-05-03T16:11:10.624Z,100068.33
2019-05-03T16:13:44.841Z,100070.80
2019-05-03T16:16:17.842Z,100073.27
2019-05-03T16:18:51.523Z,100069.98
2019-05-03T16:21:25.034Z,100056.46
2019-05-03T16:23:58.347Z,100085.61
2019-05-03T16:26:32.113Z,100031.61
2019-05-03T16:29:05.408Z,100079.52
2019-05-03T16:31:37.609Z,100080.83
2019-05-03T16:34:10.043Z,100101.27
2019-05-03T16:36:45.387Z,100095.81
2019-05-03T16:39:16.720Z,100096.16
2019-05-03T16:41:48.603Z,100091.58
2019-05-03T16:44:21.203Z,100094.34
2019-05-03T16:46:55.411Z,100097.74
2019-05-03T16:49:27.001Z,100100.77
2019-05-03T16:51:58.792Z,100101.87
2019-05-03T16:54:32.290Z,100104.39
2019-05-03T16:57:05.642Z,100107.77
2019-05-03T16:59:37.061Z,100109.84
2019-05-03T17:02:08.532Z,100118.09
2019-05-03T17:04:51.742Z,100129.14
2019-05-03T17:07:41.100Z,100130.18
2019-05-03T17:10:19.020Z,100131.86
2019-05-03T17:12:50.623Z,100147.36
2019-05-03T17:15:22.229Z,100143.18
2019-05-03T17:17:53.690Z,100153.79
2019-05-03T17:20:25.469Z,100153.88
2019-05-03T17:22:57.211Z,100159.50
2019-05-03T17:25:28.873Z,100162.48
2019-05-03T17:28:04.889Z,100165.16
2019-05-03T17:30:38.061Z,100168.91
2019-05-03T17:33:09.529Z,100171.78
2019-05-03T17:35:41.126Z,100170.44
2019-05-03T17:38:12.529Z,100174.22
2019-05-03T17:40:46.855Z,100168.21
2019-05-03T17:43:29.215Z,100181.49
2019-05-03T17:46:09.556Z,100184.41
2019-05-03T17:48:41.120Z,100186.89
2019-05-03T17:51:15.134Z,100182.89
2019-05-03T17:53:56.718Z,100195.55
2019-05-03T17:56:30.356Z,100187.64
2019-05-03T17:59:04.570Z,100195.11
2019-05-03T18:01:42.216Z,100190.73
2019-05-03T18:04:15.848Z,100195.08
2019-05-03T18:06:52.311Z,100200.84
2019-05-03T18:09:26.596Z,100196.86
2019-05-03T18:12:00.132Z,100203.52
2019-05-03T18:14:34.396Z,100207.45
2019-05-03T18:17:07.059Z,100198.20
2019-05-03T18:19:39.456Z,100208.10
2019-05-03T18:22:20.277Z,100214.38
2019-05-03T18:24:58.476Z,100208.88
2019-05-03T18:27:31.628Z,100207.53
2019-05-03T18:30:06.746Z,100215.30
2019-05-03T18:32:40.454Z,100215.39
2019-05-03T18:35:15.727Z,100211.47
2019-05-03T18:37:50.939Z,100214.44
2019-05-03T18:40:24.808Z,100211.56
2019-05-03T18:43:07.639Z,100224.47
2019-05-03T18:45:47.499Z,100220.99
2019-05-03T18:48:24.585Z,100215.48
2019-05-03T18:50:58.121Z,100226.91
2019-05-03T18:53:34.458Z,100220.69
2019-05-03T18:56:06.753Z,100223.77
2019-05-03T18:58:39.710Z,100232.11
2019-05-03T19:01:14.799Z,100236.80
2019-05-03T19:03:51.978Z,100227.51
2019-05-03T19:06:30.288Z,100241.98
2019-05-03T19:09:05.262Z,100241.35
2019-05-03T19:11:51.766Z,100237.20
2019-05-03T19:14:25.777Z,100240.96
2019-05-03T19:17:02.126Z,100243.43
2019-05-03T19:19:44.997Z,100233.05
2019-05-03T19:22:16.823Z,100243.02
2019-05-03T19:24:49.702Z,100237.77
2019-05-03T19:27:21.771Z,100241.47
2019-05-03T19:29:55.428Z,100249.88
2019-05-03T19:32:28.276Z,100253.83
2019-05-03T19:35:00.330Z,100247.98
2019-05-03T19:37:31.997Z,100252.91
2019-05-03T19:40:06.551Z,100250.97
2019-05-03T19:42:40.049Z,100252.09
2019-05-03T19:45:12.101Z,100249.78
2019-05-03T19:47:44.792Z,100260.98
2019-05-03T19:50:17.639Z,100255.61
2019-05-03T19:53:02.610Z,100253.66
2019-05-03T19:55:33.907Z,100256.39
2019-05-03T19:58:05.741Z,100252.12
2019-05-03T20:00:39.054Z,100258.41
2019-05-03T20:03:12.325Z,100266.21
2019-05-03T20:05:51.814Z,100266.68
2019-05-03T20:08:31.112Z,100271.86
2019-05-03T20:11:17.873Z,100273.77
2019-05-03T20:13:52.208Z,100260.69
2019-05-03T20:16:25.945Z,100272.17
2019-05-03T20:18:57.624Z,100274.70
2019-05-03T20:21:30.425Z,100272.71
2019-05-03T20:24:05.449Z,100268.48
2019-05-03T20:26:38.492Z,100287.06
2019-05-03T20:29:10.717Z,100285.08
2019-05-03T20:31:44.712Z,100299.31
2019-05-03T20:34:16.033Z,100293.30
2019-05-03T20:36:48.088Z,100294.00
2019-05-03T20:39:22.799Z,100288.09
2019-05-03T20:41:56.710Z,100287.61
2019-05-03T20:44:30.033Z,100306.02
2019-05-03T20:47:14.960Z,100300.02
2019-05-03T20:49:48.309Z,100307.66
2019-05-03T20:52:21.112Z,100307.07
2019-05-03T20:54:55.132Z,100307.51
2019-05-03T20:57:28.026Z,100309.39
2019-05-03T21:00:00.032Z,100309.25
2019-05-03T21:02:35.506Z,100314.55
2019-05-03T21:05:09.261Z,100320.58
2019-05-03T21:07:45.367Z,100304.19
2019-05-03T21:10:17.115Z,100317.98
2019-05-03T21:12:49.902Z,100321.56
2019-05-03T21:15:40.907Z,100315.91
2019-05-03T21:18:24.365Z,100320.09
2019-05-03T21:20:57.444Z,100315.70
2019-05-03T21:23:35.225Z,100321.93
2019-05-03T21:26:13.662Z,100322.63
2019-05-03T21:28:44.932Z,100324.67
2019-05-03T21:31:16.541Z,100326.02
2019-05-03T21:33:48.478Z,100321.44
2019-05-03T21:36:25.354Z,100319.16
2019-05-03T21:38:56.769Z,100323.69
2019-05-03T21:41:29.002Z,100328.41
2019-05-03T21:44:02.346Z,100314.69
2019-05-03T21:46:45.072Z,100329.45
2019-05-03T21:49:25.198Z,100331.80
2019-05-03T21:51:58.368Z,100331.80
2019-05-03T21:54:30.849Z,100329.47
2019-05-03T21:57:02.768Z,100332.19
2019-05-03T21:59:35.447Z,100334.72
2019-05-03T22:02:08.816Z,100332.34
2019-05-03T22:04:44.791Z,100332.84
2019-05-03T22:07:16.382Z,100324.80
2019-05-03T22:09:48.097Z,100332.54
2019-05-03T22:12:19.549Z,100329.52
2019-05-03T22:15:10.826Z,100331.89
2019-05-03T22:18:02.349Z,100337.06
2019-05-03T22:20:39.940Z,100324.16
2019-05-03T22:23:16.039Z,100324.81
2019-05-03T22:25:47.696Z,100327.83
2019-05-03T22:28:19.408Z,100325.33
2019-05-03T22:30:51.045Z,100322.15
2019-05-03T22:33:24.167Z,100317.14
2019-05-03T22:36:07.591Z,100313.11
2019-05-03T22:38:28.938Z,100320.78
2019-05-03T22:41:01.355Z,100319.97
2019-05-03T22:43:34.866Z,100315.42
2019-05-03T22:46:06.366Z,100319.09
2019-05-03T22:48:37.732Z,100316.95
2019-05-03T22:51:09.402Z,100314.08
2019-05-03T22:53:40.955Z,100315.45
2019-05-03T22:56:14.436Z,100316.79
2019-05-03T22:58:46.472Z,100319.78
2019-05-03T23:01:18.228Z,100329.01
2019-05-03T23:03:49.744Z,100316.44
2019-05-03T23:06:22.705Z,100325.83
2019-05-03T23:08:56.220Z,100322.46
2019-05-03T23:11:27.722Z,100327.14
2019-05-03T23:14:04.621Z,100324.31
2019-05-03T23:16:36.570Z,100337.91
2019-05-03T23:19:07.892Z,100333.20
2019-05-03T23:21:44.191Z,100334.54
2019-05-03T23:24:15.858Z,100338.56
2019-05-03T23:26:47.568Z,100340.06
2019-05-03T23:29:19.261Z,100339.91
2019-05-03T23:31:50.848Z,100342.93
2019-05-03T23:34:24.642Z,100336.88
2019-05-03T23:36:56.007Z,100349.63
2019-05-03T23:39:27.797Z,100386.17
2019-05-03T23:41:59.339Z,100404.95
2019-05-03T23:44:30.837Z,100402.77
2019-05-03T23:47:06.970Z,100394.56
2019-05-03T23:49:38.640Z,100389.32
2019-05-03T23:52:26.619Z,100386.78
2019-05-03T23:55:00.832Z,100391.46
2019-05-03T23:57:31.552Z,100404.08
